Time;durP1;ratioP1;P1;durP2;ratioP2;P2;SDS_P1;SDS_P2;PMS_P1;PMS_P2;Temp;Humidity;BMP_temperature;BMP_pressure;BME280_temperature;BME280_humidity;BME280_pressure;Samples;Min_cycle;Max_cycle;Signal;HPM_P1;HPM_P2
2023/10/09 00:03:08;;;;;;;2.53;1.10;;;;;;;9.16;65.85;99677.53;4435369;32;20092;-76
2023/10/09 00:08:39;;;;;;;6.80;1.23;;;;;;;9.21;66.15;99671.97;4435373;32;20180;-76
2023/10/09 00:11:13;;;;;;;2.78;1.02;;;;;;;9.07;66.05;99665.09;4435326;32;20137;-76
2023/10/09 00:13:48;;;;;;;2.28;1.37;;;;;;;9.13;67.72;99659.44;4435127;32;20572;-76
2023/10/09 00:16:32;;;;;;;0.80;0.65;;;;;;;9.29;68.26;99663.59;4427521;32;20656;-76
2023/10/09 00:19:19;;;;;;;2.37;0.77;;;;;;;9.33;68.96;99659.84;4424479;32;20189;-76
2023/10/09 00:21:48;;;;;;;2.35;0.90;;;;;;;9.34;67.28;99657.13;4435206;32;20129;-76
2023/10/09 00:24:23;;;;;;;1.83;0.88;;;;;;;9.41;67.88;99650.50;4473866;32;20505;-76
2023/10/09 00:26:55;;;;;;;3.08;0.90;;;;;;;9.39;68.55;99649.78;4484783;32;20605;-76
2023/10/09 00:29:23;;;;;;;2.15;0.70;;;;;;;9.38;68.51;99642.87;4484442;32;20093;-76
2023/10/09 00:32:03;;;;;;;1.50;0.82;;;;;;;9.43;67.31;99639.09;4484174;32;20096;-76
2023/10/09 00:34:39;;;;;;;3.67;1.00;;;;;;;9.34;65.23;99637.97;4484131;32;20099;-75
2023/10/09 00:37:16;;;;;;;2.58;0.90;;;;;;;9.31;64.75;99641.66;4484392;32;20084;-76
2023/10/09 00:39:44;;;;;;;2.87;0.80;;;;;;;9.28;63.75;99633.16;4484250;32;20096;-75
2023/10/09 00:42:27;;;;;;;1.98;0.70;;;;;;;9.32;62.99;99632.84;4484165;32;20088;-75
2023/10/09 00:45:04;;;;;;;3.43;1.17;;;;;;;9.34;62.55;99636.19;4484330;32;20072;-75
2023/10/09 00:47:35;;;;;;;2.58;0.82;;;;;;;9.38;61.87;99642.03;4484020;32;20119;-76
2023/10/09 00:50:20;;;;;;;2.92;1.20;;;;;;;9.39;62.51;99634.09;4485336;32;20119;-75
2023/10/09 00:53:01;;;;;;;1.87;1.12;;;;;;;9.44;63.53;99641.59;4485322;32;20096;-75
2023/10/09 00:55:44;;;;;;;3.62;1.12;;;;;;;9.44;65.17;99633.75;4483543;32;20088;-75
2023/10/09 00:58:13;;;;;;;2.10;0.95;;;;;;;9.37;65.98;99641.22;4485794;32;20521;-75
2023/10/09 01:06:14;;;;;;;3.12;1.23;;;;;;;9.52;64.93;99643.69;4486106;32;20584;-75
2023/10/09 01:11:10;;;;;;;3.78;1.00;;;;;;;9.61;64.75;99644.81;4486003;32;20176;-75
2023/10/09 01:13:52;;;;;;;3.47;1.10;;;;;;;9.66;65.94;99635.69;4485966;32;20126;-75
2023/10/09 01:16:24;;;;;;;2.83;1.10;;;;;;;9.72;67.07;99630.03;4483155;32;20134;-75
2023/10/09 01:18:56;;;;;;;3.17;1.30;;;;;;;9.73;66.30;99633.47;4485656;32;20180;-76
2023/10/09 01:21:26;;;;;;;2.40;0.90;;;;;;;9.64;67.65;99632.34;4485915;32;20413;-76
2023/10/09 01:24:04;;;;;;;3.00;1.02;;;;;;;9.51;67.27;99626.34;4485962;32;20122;-75
2023/10/09 01:26:39;;;;;;;3.60;1.00;;;;;;;9.49;67.49;99638.66;4485823;32;20110;-76
2023/10/09 01:29:14;;;;;;;2.35;0.98;;;;;;;9.55;67.50;99633.00;4485760;32;20147;-75
2023/10/09 01:32:01;;;;;;;2.42;0.90;;;;;;;9.57;67.62;99642.41;4485730;32;20475;-75
2023/10/09 01:34:42;;;;;;;2.10;1.05;;;;;;;9.61;68.45;99645.63;4485468;32;20210;-75
2023/10/09 01:37:28;;;;;;;1.33;0.90;;;;;;;9.56;67.51;99647.75;4485851;32;20157;-75
2023/10/09 01:39:59;;;;;;;1.37;0.80;;;;;;;9.54;67.21;99641.81;4485673;32;20112;-75
2023/10/09 01:45:10;;;;;;;2.60;1.30;;;;;;;9.65;68.64;99647.09;4485541;32;20092;-75
2023/10/09 01:47:38;;;;;;;3.08;1.00;;;;;;;9.73;68.53;99644.75;4485823;32;20413;-76
2023/10/09 01:50:20;;;;;;;2.28;1.00;;;;;;;9.89;68.12;99643.69;4485641;32;20119;-75
2023/10/09 01:52:49;;;;;;;2.75;1.27;;;;;;;9.77;68.24;99654.06;4485703;32;20168;-75
2023/10/09 01:55:33;;;;;;;6.00;0.90;;;;;;;9.74;67.87;99658.69;4485699;32;20533;-76
2023/10/09 01:58:16;;;;;;;2.97;1.05;;;;;;;9.68;68.36;99661.75;4485679;32;20202;-75
2023/10/09 02:00:48;;;;;;;1.67;0.90;;;;;;;9.64;71.76;99666.34;4485196;32;20096;-75
2023/10/09 02:03:17;;;;;;;3.47;0.90;;;;;;;9.54;72.00;99665.34;4485799;32;20114;-75
2023/10/09 02:05:45;;;;;;;5.18;1.08;;;;;;;9.55;71.81;99670.47;4485873;32;20101;-76
2023/10/09 02:08:13;;;;;;;5.47;1.17;;;;;;;9.62;71.93;99670.88;4485540;32;20088;-75
2023/10/09 02:10:44;;;;;;;4.43;0.90;;;;;;;9.64;72.39;99661.12;4485624;32;20454;-75
2023/10/09 02:13:11;;;;;;;1.75;1.00;;;;;;;9.61;73.32;99653.47;4485541;32;20084;-75
2023/10/09 02:21:12;;;;;;;2.35;1.30;;;;;;;9.75;71.42;99631.59;4485524;32;20089;-75
2023/10/09 02:23:49;;;;;;;4.32;1.17;;;;;;;9.66;72.70;99633.06;4485533;32;20092;-75
2023/10/09 02:28:58;;;;;;;4.00;0.88;;;;;;;9.76;71.66;99646.31;4485392;32;20128;-76
2023/10/09 02:31:35;;;;;;;3.03;1.02;;;;;;;9.77;71.38;99630.50;4485627;32;20160;-75
2023/10/09 02:34:15;;;;;;;1.70;0.93;;;;;;;9.77;70.85;99638.38;4485152;32;20083;-74
2023/10/09 02:36:48;;;;;;;4.85;0.98;;;;;;;9.82;69.96;99627.56;4485317;32;20084;-76
2023/10/09 02:39:52;;;;;;;2.10;1.00;;;;;;;9.57;72.93;99616.25;4485380;32;20106;-75
2023/10/09 02:44:45;;;;;;;2.80;1.35;;;;;;;9.67;72.92;99637.34;4485166;32;20111;-76
2023/10/09 02:47:20;;;;;;;2.03;1.15;;;;;;;9.71;74.31;99623.09;4485359;32;20160;-76
2023/10/09 02:49:50;;;;;;;3.05;1.23;;;;;;;9.72;73.98;99614.31;4485238;32;20085;-75
2023/10/09 02:52:19;;;;;;;3.35;1.10;;;;;;;9.48;74.44;99596.00;4485118;32;20148;-75
2023/10/09 02:54:47;;;;;;;2.20;0.98;;;;;;;9.20;74.25;99597.94;4485065;32;20532;-76
2023/10/09 02:57:23;;;;;;;3.80;0.90;;;;;;;9.08;74.42;99592.75;4485255;32;20421;-76
2023/10/09 02:59:51;;;;;;;2.35;1.23;;;;;;;9.34;71.98;99610.06;4485161;32;20564;-76
2023/10/09 03:02:19;;;;;;;2.33;1.30;;;;;;;9.46;71.41;99610.94;4485102;32;20445;-76
2023/10/09 03:04:46;;;;;;;3.33;1.10;;;;;;;9.55;71.27;99614.69;4484992;32;20115;-76
2023/10/09 03:07:14;;;;;;;2.65;1.17;;;;;;;9.62;70.92;99608.06;4485149;32;20453;-76
2023/10/09 03:09:41;;;;;;;3.45;1.12;;;;;;;9.60;69.55;99620.44;4485149;32;20740;-76
2023/10/09 03:12:12;;;;;;;4.32;0.80;;;;;;;9.61;68.71;99624.72;4484458;32;20093;-76
2023/10/09 03:14:41;;;;;;;3.58;1.23;;;;;;;9.71;69.04;99617.06;4484824;32;20092;-77
2023/10/09 03:17:11;;;;;;;2.70;1.00;;;;;;;9.74;68.54;99596.72;4484820;32;20123;-76
2023/10/09 03:19:40;;;;;;;2.65;1.12;;;;;;;9.78;68.82;99597.34;4484972;32;20167;-76
2023/10/09 03:22:10;;;;;;;1.58;0.90;;;;;;;9.61;69.70;99587.25;4484887;32;20089;-76
2023/10/09 03:24:44;;;;;;;4.35;1.20;;;;;;;9.53;69.90;99582.56;4485232;32;20155;-76
2023/10/09 03:27:18;;;;;;;3.35;0.90;;;;;;;9.48;70.72;99592.53;4485006;32;20123;-76
2023/10/09 03:29:49;;;;;;;1.92;1.15;;;;;;;9.46;71.49;99583.97;4484941;32;20104;-76
2023/10/09 03:32:19;;;;;;;1.75;0.98;;;;;;;9.37;71.62;99583.69;4484913;32;20369;-76
2023/10/09 03:34:49;;;;;;;1.55;0.95;;;;;;;9.32;72.51;99583.16;4484832;32;20524;-76
2023/10/09 03:37:33;;;;;;;3.15;1.40;;;;;;;9.36;72.38;99587.22;4484784;32;20088;-76
2023/10/09 03:40:03;;;;;;;3.75;1.37;;;;;;;9.47;71.61;99581.22;4484928;32;20433;-76
2023/10/09 03:42:33;;;;;;;3.17;1.05;;;;;;;9.54;71.30;99586.88;4484932;32;20089;-76
2023/10/09 03:45:12;;;;;;;2.87;1.35;;;;;;;9.50;71.21;99594.09;4484905;32;20104;-76
2023/10/09 03:47:48;;;;;;;3.42;1.23;;;;;;;9.44;71.36;99591.91;4484762;32;20436;-76
2023/10/09 03:50:26;;;;;;;3.20;1.37;;;;;;;9.48;71.66;99602.97;4484689;32;20077;-76
2023/10/09 03:52:55;;;;;;;2.72;1.08;;;;;;;9.48;71.18;99587.28;4484496;32;20374;-76
2023/10/09 03:55:27;;;;;;;3.33;1.15;;;;;;;9.50;70.68;99599.31;4484661;32;20104;-76
2023/10/09 03:57:59;;;;;;;2.58;1.20;;;;;;;9.52;70.85;99589.59;4484735;32;20111;-76
2023/10/09 04:00:29;;;;;;;1.80;1.20;;;;;;;9.57;70.75;99594.50;4484667;32;20131;-76
2023/10/09 04:02:59;;;;;;;2.78;1.37;;;;;;;9.62;70.19;99584.53;4489486;31;20155;-75
2023/10/09 04:05:28;;;;;;;3.10;1.00;;;;;;;9.62;69.89;99574.06;4484490;31;20096;-76
2023/10/09 04:08:13;;;;;;;3.78;1.08;;;;;;;9.67;69.50;99573.72;4476757;31;20088;-75
2023/10/09 04:10:50;;;;;;;2.65;1.50;;;;;;;9.76;68.26;99573.06;4468850;32;20068;-76
2023/10/09 04:13:33;;;;;;;2.85;1.25;;;;;;;9.83;67.39;99594.41;4468774;32;20097;-75
2023/10/09 04:16:10;;;;;;;3.42;1.12;;;;;;;9.81;67.81;99580.56;4472223;32;20100;-77
2023/10/09 04:18:39;;;;;;;3.55;1.10;;;;;;;9.86;67.38;99581.09;4484704;31;20103;-77
2023/10/09 04:21:18;;;;;;;3.55;1.37;;;;;;;9.88;67.66;99576.56;4484183;32;20100;-77
2023/10/09 04:23:59;;;;;;;2.55;0.93;;;;;;;9.91;67.78;99581.56;4484121;32;20088;-77
2023/10/09 04:26:29;;;;;;;1.90;0.93;;;;;;;9.99;67.12;99576.59;4484220;32;20100;-77
2023/10/09 04:28:57;;;;;;;2.72;1.25;;;;;;;10.01;66.72;99571.25;4482757;32;20135;-77
2023/10/09 04:31:31;;;;;;;2.90;1.05;;;;;;;10.01;67.44;99569.47;4479354;32;20115;-77
2023/10/09 04:36:46;;;;;;;2.95;1.02;;;;;;;9.94;66.28;99561.22;4483840;32;20178;-77
2023/10/09 04:40:01;;;;;;;2.40;1.12;;;;;;;9.86;66.89;99549.69;4484343;32;20088;-77
2023/10/09 04:45:19;;;;;;;2.83;1.35;;;;;;;9.87;67.44;99549.56;4484270;32;20093;-77
2023/10/09 04:47:49;;;;;;;2.28;0.82;;;;;;;9.85;67.99;99542.78;4482790;32;20459;-77
2023/10/09 04:52:51;;;;;;;2.12;1.05;;;;;;;9.82;69.04;99540.38;4483251;32;20149;-77
2023/10/09 04:55:24;;;;;;;1.60;1.05;;;;;;;9.89;68.82;99541.59;4480450;32;20124;-77
2023/10/09 04:58:01;;;;;;;5.07;1.05;;;;;;;9.86;68.91;99539.22;4483695;31;20104;-76
2023/10/09 05:03:11;;;;;;;3.80;1.48;;;;;;;9.89;68.83;99539.81;4483872;32;20080;-77
2023/10/09 05:08:29;;;;;;;2.83;1.35;;;;;;;9.98;69.44;99529.59;4483624;32;20096;-77
2023/10/09 05:11:05;;;;;;;3.55;1.50;;;;;;;9.89;69.74;99518.88;4482772;32;20153;-76
2023/10/09 05:16:19;;;;;;;1.77;1.37;;;;;;;9.91;69.31;99510.91;4476459;31;20159;-76
2023/10/09 05:18:57;;;;;;;10.88;1.25;;;;;;;9.91;69.86;99516.97;4467855;32;20529;-76
2023/10/09 05:21:36;;;;;;;4.85;1.40;;;;;;;9.94;70.19;99505.44;4465623;32;20465;-75
2023/10/09 05:29:19;;;;;;;7.10;1.70;;;;;;;10.00;70.00;99510.22;4471495;32;20694;-76
2023/10/09 05:32:03;;;;;;;2.90;1.25;;;;;;;10.03;70.70;99511.78;4481668;31;20386;-77
2023/10/09 05:34:34;;;;;;;3.33;1.35;;;;;;;10.05;69.73;99529.03;4479262;32;20088;-77
2023/10/09 05:37:43;;;;;;;3.83;1.60;;;;;;;10.15;69.93;99510.84;4474911;32;20088;-76
2023/10/09 05:42:42;;;;;;;4.43;1.52;;;;;;;10.25;69.75;99521.44;4476680;32;20089;-77
2023/10/09 05:47:56;;;;;;;2.90;1.17;;;;;;;10.25;68.92;99538.00;4470381;32;20096;-79
2023/10/09 06:03:53;;;;;;;7.03;3.28;;;;;;;10.44;68.82;99520.91;4450076;32;20120;-78
2023/10/09 06:06:33;;;;;;;5.53;1.67;;;;;;;10.39;68.27;99530.94;4450451;32;20105;-79
2023/10/09 06:14:49;;;;;;;3.97;1.25;;;;;;;10.40;64.64;99507.25;4433685;32;20089;-77
2023/10/09 06:19:44;;;;;;;3.30;1.25;;;;;;;10.63;63.52;99496.78;4434794;32;20109;-78
2023/10/09 06:24:42;;;;;;;4.40;1.17;;;;;;;10.87;62.35;99485.28;4433559;32;20127;-79
2023/10/09 06:27:24;;;;;;;6.10;1.50;;;;;;;11.01;62.44;99483.25;4433189;32;20842;-78
2023/10/09 06:33:04;;;;;;;4.90;0.90;;;;;;;11.14;58.03;99487.50;4433801;32;20097;-77
2023/10/09 06:35:35;;;;;;;4.40;1.40;;;;;;;10.86;58.71;99489.72;4459914;32;20120;-79
2023/10/09 06:38:22;;;;;;;2.67;1.20;;;;;;;10.84;58.84;99491.63;4469510;32;20109;-80
2023/10/09 06:43:36;;;;;;;3.28;1.58;;;;;;;10.87;57.40;99506.25;4471190;32;20101;-81
2023/10/09 06:48:57;;;;;;;2.33;1.12;;;;;;;10.83;58.67;99488.16;4417664;32;20117;-80
2023/10/09 07:02:45;;;;;;;2.90;1.05;;;;;;;10.99;58.21;99474.69;4414240;32;20925;-82
2023/10/09 07:07:12;;;;;;;3.10;1.17;;;;;;;11.12;57.25;99477.13;4415117;32;20129;-83
2023/10/09 07:10:28;;;;;;;6.10;1.20;;;;;;;11.05;56.33;99462.84;4417699;32;20465;-81
2023/10/09 07:12:42;;;;;;;6.07;1.05;;;;;;;11.15;56.62;99462.97;4416050;32;20109;-82
2023/10/09 07:18:18;;;;;;;5.82;1.27;;;;;;;11.35;54.42;99458.72;4416896;32;20982;-80
2023/10/09 07:20:58;;;;;;;3.22;1.17;;;;;;;11.49;54.44;99466.31;4417799;32;20981;-80
2023/10/09 07:23:32;;;;;;;2.17;1.20;;;;;;;11.39;53.64;99460.13;4416808;32;20137;-84
2023/10/09 07:26:23;;;;;;;3.00;1.12;;;;;;;11.62;53.55;99455.62;4440429;32;20121;-83
2023/10/09 07:29:00;;;;;;;2.60;1.30;;;;;;;11.57;51.71;99459.56;4479786;31;20134;-77
2023/10/09 07:31:29;;;;;;;5.70;1.30;;;;;;;11.78;52.21;99459.59;4476377;31;20142;-82
2023/10/09 07:33:59;;;;;;;8.65;1.45;;;;;;;11.78;52.24;99449.94;4469215;32;20474;-81
2023/10/09 07:36:34;;;;;;;3.05;1.30;;;;;;;11.78;49.33;99439.44;4468888;32;20092;-83
2023/10/09 07:39:10;;;;;;;5.12;1.25;;;;;;;11.77;48.59;99427.25;4467498;32;20093;-80
2023/10/09 07:41:55;;;;;;;4.57;1.25;;;;;;;11.90;49.56;99408.69;4472643;31;20084;-78
2023/10/09 07:44:38;;;;;;;4.32;1.30;;;;;;;11.84;48.92;99402.16;4475529;32;20104;-81
2023/10/09 07:47:19;;;;;;;2.05;1.00;;;;;;;11.86;48.55;99386.28;4473531;32;20144;-78
2023/10/09 07:49:53;;;;;;;2.72;1.75;;;;;;;12.18;49.29;99388.81;4472514;32;20111;-79
2023/10/09 07:52:22;;;;;;;7.47;0.95;;;;;;;12.30;47.97;99375.59;4472145;32;20525;-80
2023/10/09 07:54:50;;;;;;;2.78;1.10;;;;;;;12.34;48.06;99366.47;4473608;32;20124;-80
2023/10/09 07:57:26;;;;;;;2.58;1.10;;;;;;;12.45;47.21;99347.97;4474931;31;20128;-85
2023/10/09 08:00:35;;;;;;;4.55;1.40;;;;;;;12.60;46.55;99351.88;4471792;32;20197;-82
2023/10/09 08:03:00;;;;;;;1.98;1.20;;;;;;;12.67;46.39;99351.31;4470009;32;20143;-82
2023/10/09 08:05:33;;;;;;;6.53;1.42;;;;;;;12.73;45.92;99354.25;4466068;32;20147;-82
2023/10/09 08:13:56;;;;;;;5.72;1.02;;;;;;;12.73;45.41;99358.66;4471817;32;20092;-80
2023/10/09 08:16:35;;;;;;;3.05;0.90;;;;;;;12.76;45.78;99353.13;4469793;32;20123;-83
2023/10/09 08:24:41;;;;;;;2.08;1.02;;;;;;;13.08;42.95;99339.75;4469541;32;20473;-81
2023/10/09 08:30:28;;;;;;;1.73;0.70;;;;;;;13.21;41.33;99326.28;4472822;32;20786;-79
2023/10/09 08:33:35;;;;;;;2.05;0.70;;;;;;;13.40;41.81;99317.56;4468011;32;20157;-77
2023/10/09 08:36:07;;;;;;;1.62;0.70;;;;;;;13.54;40.73;99313.66;4468130;32;20096;-77
2023/10/09 08:38:35;;;;;;;3.72;0.80;;;;;;;13.36;41.32;99321.44;4472903;32;20103;-78
2023/10/09 08:41:15;;;;;;;3.92;1.05;;;;;;;13.57;41.29;99317.81;4470132;32;20100;-78
2023/10/09 08:43:52;;;;;;;11.12;1.45;;;;;;;13.73;41.96;99317.19;4469758;32;20152;-81
2023/10/09 08:46:21;;;;;;;2.35;0.80;;;;;;;13.84;41.43;99312.59;4469690;32;20092;-80
2023/10/09 08:48:50;;;;;;;9.88;0.90;;;;;;;13.82;41.67;99308.44;4471340;32;20093;-80
2023/10/09 08:51:18;;;;;;;4.50;1.10;;;;;;;13.96;41.26;99310.59;4469361;32;20152;-81
2023/10/09 08:53:46;;;;;;;1.80;0.75;;;;;;;14.14;40.52;99309.81;4466595;31;20104;-82
2023/10/09 08:56:15;;;;;;;1.65;0.82;;;;;;;14.14;40.71;99304.53;4471298;32;20135;-80
2023/10/09 08:58:42;;;;;;;1.90;1.20;;;;;;;13.73;42.91;99301.41;4470525;32;20104;-83
2023/10/09 09:01:17;;;;;;;10.48;1.00;;;;;;;14.14;42.50;99294.00;4472550;32;20119;-83
2023/10/09 09:03:45;;;;;;;2.60;0.90;;;;;;;14.12;40.71;99298.59;4468539;31;20088;-82
2023/10/09 09:06:14;;;;;;;11.90;1.87;;;;;;;14.00;41.12;99290.91;4474116;31;20139;-83
2023/10/09 09:08:44;;;;;;;6.07;1.50;;;;;;;13.96;43.92;99286.03;4470834;32;20131;-81
2023/10/09 09:11:14;;;;;;;8.52;1.25;;;;;;;13.65;42.72;99281.06;4472016;32;20089;-82
2023/10/09 09:13:48;;;;;;;2.92;1.20;;;;;;;13.70;42.58;99270.09;4472758;31;20145;-82
2023/10/09 09:16:20;;;;;;;1.87;0.80;;;;;;;13.90;42.09;99269.03;4469607;32;20122;-82
2023/10/09 09:19:17;;;;;;;2.95;1.15;;;;;;;13.97;42.19;99266.63;4472713;32;20101;-83
2023/10/09 09:21:49;;;;;;;8.85;1.20;;;;;;;14.45;41.50;99262.88;4469384;31;20112;-83
2023/10/09 09:26:58;;;;;;;4.47;0.80;;;;;;;13.92;42.60;99266.25;4469886;32;20092;-82
2023/10/09 09:29:38;;;;;;;6.35;1.25;;;;;;;14.05;41.22;99271.16;4472442;32;20104;-81
2023/10/09 09:32:18;;;;;;;12.60;1.10;;;;;;;14.38;42.86;99267.94;4470513;32;20472;-82
2023/10/09 09:34:55;;;;;;;2.42;0.90;;;;;;;14.30;42.47;99261.75;4468764;32;20286;-80
2023/10/09 09:37:31;;;;;;;17.20;1.10;;;;;;;14.78;39.99;99265.03;4476609;32;20097;-88
2023/10/09 09:40:15;;;;;;;4.75;1.08;;;;;;;15.16;41.44;99257.75;4474637;32;20477;-90
2023/10/09 09:42:49;;;;;;;2.40;0.90;;;;;;;15.16;40.14;99263.84;4471410;32;20201;-92
2023/10/09 09:45:23;;;;;;;2.12;0.88;;;;;;;15.13;40.84;99261.50;4468210;32;20092;-87
2023/10/09 09:47:54;;;;;;;10.85;1.40;;;;;;;14.87;40.41;99270.22;4477004;31;20588;-85
2023/10/09 09:50:26;;;;;;;8.00;1.08;;;;;;;14.47;40.42;99270.63;4471980;32;20168;-86
2023/10/09 09:52:54;;;;;;;63.03;4.05;;;;;;;13.96;41.59;99259.69;4473685;32;20080;-86
2023/10/09 09:55:30;;;;;;;9.63;1.20;;;;;;;14.01;42.17;99252.22;4471747;32;20148;-89
2023/10/09 09:58:01;;;;;;;3.92;0.80;;;;;;;13.65;42.75;99249.47;4468958;32;20097;-89
2023/10/09 10:03:33;;;;;;;1.87;0.98;;;;;;;14.02;42.34;99233.63;4470507;32;20169;-89
2023/10/09 10:06:05;;;;;;;3.03;0.70;;;;;;;14.09;41.02;99222.50;4397113;32;20109;-87
2023/10/09 10:08:33;;;;;;;6.57;0.90;;;;;;;13.93;42.01;99236.28;4407948;32;20152;-91
2023/10/09 10:11:06;;;;;;;5.28;1.30;;;;;;;14.09;42.34;99228.56;4414181;32;20162;-85
2023/10/09 10:13:56;;;;;;;28.02;2.03;;;;;;;14.24;42.25;99223.63;4418890;32;20101;-85
2023/10/09 10:16:23;;;;;;;3.05;1.05;;;;;;;14.48;41.34;99212.50;4420502;32;20237;-90
2023/10/09 10:19:07;;;;;;;2.25;0.60;;;;;;;14.50;41.26;99200.00;4419307;32;20591;-89
2023/10/09 10:21:41;;;;;;;22.52;1.48;;;;;;;14.63;42.16;99172.44;4419317;32;20102;-86
2023/10/09 10:27:18;;;;;;;14.05;1.08;;;;;;;14.31;42.19;99182.53;4418045;32;20140;-82
2023/10/09 10:29:50;;;;;;;4.37;1.00;;;;;;;14.03;42.29;99163.31;4418970;32;20097;-88
2023/10/09 10:32:20;;;;;;;2.12;0.80;;;;;;;14.01;42.08;99147.66;4419851;32;20200;-88
2023/10/09 10:34:56;;;;;;;10.20;0.90;;;;;;;14.28;42.47;99148.56;4418970;32;20502;-81
2023/10/09 10:37:51;;;;;;;;;;;;;;;14.43;41.21;99129.56;4416116;32;20123;-90
2023/10/09 10:40:40;;;;;;;16.40;1.45;;;;;;;14.43;42.00;99150.66;4420084;32;19985;-77
2023/10/09 10:43:32;;;;;;;5.25;1.58;;;;;;;14.28;44.08;99138.03;4447893;32;20108;-78
2023/10/09 10:46:05;;;;;;;3.75;1.05;;;;;;;14.38;41.67;99128.22;4482110;31;20093;-84
2023/10/09 10:48:38;;;;;;;1.95;0.93;;;;;;;14.69;42.55;99104.09;4477768;32;20103;-79
2023/10/09 10:51:11;;;;;;;;;;;;;;;14.77;42.03;99092.75;4480145;32;20442;-76
2023/10/09 10:53:57;;;;;;;5.07;1.15;;;;;;;15.00;42.79;99100.13;4476444;32;19988;-79
2023/10/09 10:56:35;;;;;;;3.87;1.20;;;;;;;15.16;41.86;99104.66;4479150;32;20135;-79
2023/10/09 11:15:46;;;;;;;1.55;1.10;;;;;;;16.85;38.87;99054.91;4481182;31;20101;-76
2023/10/09 11:18:26;;;;;;;4.40;1.37;;;;;;;16.90;38.83;99090.66;4475351;31;20783;-78
2023/10/09 11:26:23;;;;;;;6.22;1.37;;;;;;;17.33;38.00;99099.91;4478640;31;20127;-78
2023/10/09 11:29:16;;;;;;;4.32;1.15;;;;;;;17.08;38.73;99071.87;4474332;32;20572;-79
2023/10/09 11:32:07;;;;;;;3.92;1.05;;;;;;;17.25;39.42;99032.94;4478808;31;20153;-77
2023/10/09 11:34:36;;;;;;;3.72;0.82;;;;;;;17.46;37.77;99070.22;4482902;31;20118;-79
2023/10/09 11:37:11;;;;;;;2.75;1.20;;;;;;;17.53;37.15;99065.88;4482465;31;20131;-78
2023/10/09 11:39:51;;;;;;;;;;;;;;;17.62;39.62;99084.38;4481717;32;20088;-78
2023/10/09 11:45:37;;;;;;;3.45;1.40;;;;;;;17.42;39.52;99113.94;4430914;32;20101;-78
2023/10/09 11:48:24;;;;;;;5.97;1.52;;;;;;;17.59;39.27;99116.50;4427261;32;20820;-78
2023/10/09 11:50:55;;;;;;;2.22;1.10;;;;;;;17.84;37.86;99107.41;4432165;32;20113;-78
2023/10/09 11:55:52;;;;;;;2.30;1.10;;;;;;;18.12;38.48;99098.97;4431373;32;20113;-79
2023/10/09 11:58:24;;;;;;;4.40;0.98;;;;;;;18.05;38.84;99103.34;4427064;32;20152;-79
2023/10/09 12:01:05;;;;;;;8.43;1.10;;;;;;;18.05;39.23;99076.84;4430548;32;20778;-80
2023/10/09 12:03:33;;;;;;;2.80;1.10;;;;;;;17.94;38.99;99095.78;4431584;32;20094;-79
2023/10/09 12:06:07;;;;;;;2.40;1.00;;;;;;;18.07;39.98;99088.06;4430359;32;20752;-79
2023/10/09 12:08:35;;;;;;;2.10;1.00;;;;;;;18.13;39.39;99074.09;4431096;32;20113;-79
2023/10/09 12:11:08;;;;;;;3.00;1.10;;;;;;;18.09;41.13;99072.81;4431285;32;20113;-80
2023/10/09 12:13:42;;;;;;;15.57;1.92;;;;;;;17.86;40.83;99063.00;4431303;32;20129;-78
2023/10/09 12:16:10;;;;;;;;;;;;;;;17.69;41.60;99050.88;4432400;32;20101;-79
2023/10/09 12:18:39;;;;;;;7.35;1.40;;;;;;;17.81;40.80;99040.69;4433152;32;20061;-80
2023/10/09 12:21:07;;;;;;;3.05;0.98;;;;;;;17.78;42.37;99025.16;4481376;32;20152;-81
2023/10/09 12:23:35;;;;;;;2.35;1.12;;;;;;;17.99;44.34;99028.00;4484177;31;20096;-81
2023/10/09 12:26:04;;;;;;;2.83;1.40;;;;;;;17.82;43.54;99027.28;4489803;31;20084;-80
2023/10/09 12:28:49;;;;;;;3.45;1.27;;;;;;;17.63;43.52;99015.31;4478802;31;21178;-81
2023/10/09 12:31:20;;;;;;;8.10;1.20;;;;;;;17.97;41.93;99021.22;4484735;31;20126;-81
2023/10/09 12:33:51;;;;;;;2.28;1.00;;;;;;;17.98;41.80;99013.09;4474007;32;20092;-80
2023/10/09 12:36:26;;;;;;;5.62;1.08;;;;;;;18.15;42.41;99010.28;4481643;32;20552;-81
2023/10/09 12:38:58;;;;;;;5.82;1.30;;;;;;;18.14;42.07;99001.53;4482539;32;20110;-81
2023/10/09 12:41:27;;;;;;;5.00;1.23;;;;;;;18.17;42.03;98985.25;4484271;31;20110;-81
2023/10/09 12:43:59;;;;;;;1.42;0.90;;;;;;;18.37;42.39;98979.41;4483503;31;20092;-80
2023/10/09 12:46:27;;;;;;;4.32;0.90;;;;;;;18.38;41.57;98997.81;4483331;32;20106;-80
2023/10/09 12:48:55;;;;;;;4.07;1.60;;;;;;;19.03;41.78;99005.19;4484755;32;20092;-80
2023/10/09 12:51:29;;;;;;;4.30;1.48;;;;;;;19.21;40.63;99002.94;4485498;32;20157;-80
2023/10/09 12:53:58;;;;;;;6.65;1.37;;;;;;;18.89;40.80;99005.03;4483183;32;20786;-80
2023/10/09 12:56:38;;;;;;;9.27;1.90;;;;;;;18.79;41.57;98993.88;4485024;31;20121;-81
2023/10/09 12:59:07;;;;;;;4.78;1.52;;;;;;;18.80;42.21;98995.50;4484050;32;20068;-82
2023/10/09 13:01:42;;;;;;;2.72;1.10;;;;;;;18.62;43.65;98998.53;4483825;31;20153;-79
2023/10/09 13:04:15;;;;;;;4.05;1.52;;;;;;;18.80;46.90;98987.53;4477567;32;20454;-87
2023/10/09 13:06:45;;;;;;;7.85;1.25;;;;;;;18.35;46.28;98994.66;4478848;32;20539;-82
2023/10/09 13:09:24;;;;;;;3.25;1.55;;;;;;;18.30;48.06;98983.78;4481586;31;20107;-84
2023/10/09 13:11:52;;;;;;;2.83;1.20;;;;;;;18.11;49.41;98985.97;4474771;31;20242;-84
2023/10/09 13:14:22;;;;;;;3.58;1.40;;;;;;;18.25;49.47;98977.19;4483116;31;20159;-83
2023/10/09 13:16:52;;;;;;;6.07;1.23;;;;;;;17.87;50.24;98985.16;4482226;32;20107;-84
2023/10/09 13:19:19;;;;;;;3.35;1.30;;;;;;;17.77;51.20;98987.22;4481074;31;20135;-80
2023/10/09 13:21:48;;;;;;;4.25;1.50;;;;;;;17.73;53.14;98983.28;4482690;32;20096;-82
2023/10/09 13:24:20;;;;;;;6.10;1.30;;;;;;;17.63;51.97;98972.09;4483443;32;20157;-82
2023/10/09 13:26:52;;;;;;;3.10;1.30;;;;;;;17.61;53.68;98974.94;4484196;31;20092;-80
2023/10/09 13:29:22;;;;;;;5.45;1.58;;;;;;;17.57;55.50;98968.34;4479296;31;20100;-79
2023/10/09 13:31:58;;;;;;;5.07;1.33;;;;;;;17.42;56.44;98975.41;4484017;31;20096;-80
2023/10/09 13:34:28;;;;;;;4.12;1.40;;;;;;;17.00;59.00;98972.16;4482074;31;20088;-81
2023/10/09 13:37:11;;;;;;;8.35;1.65;;;;;;;16.90;62.94;98976.88;4482757;31;20092;-82
2023/10/09 13:39:40;;;;;;;3.45;1.20;;;;;;;16.89;64.68;98977.88;4485174;32;20119;-82
2023/10/09 13:42:10;;;;;;;5.10;1.65;;;;;;;16.75;64.64;98982.03;4485143;32;20149;-82
2023/10/09 13:44:41;;;;;;;6.62;1.45;;;;;;;16.71;63.69;98976.25;4484404;31;20159;-84
2023/10/09 13:47:19;;;;;;;3.97;1.60;;;;;;;16.45;66.93;98977.31;4483428;32;20105;-82
2023/10/09 13:49:52;;;;;;;3.40;1.65;;;;;;;16.08;69.52;98968.16;4483230;32;20091;-83
2023/10/09 13:52:21;;;;;;;5.55;1.70;;;;;;;16.09;72.08;98963.69;4483845;32;20092;-82
2023/10/09 13:54:50;;;;;;;6.93;1.52;;;;;;;16.07;73.56;98961.22;4480340;32;20104;-85
2023/10/09 13:57:22;;;;;;;6.40;1.85;;;;;;;16.02;72.64;98952.97;4482266;31;20167;-85
2023/10/09 13:59:50;;;;;;;5.75;2.08;;;;;;;15.84;74.84;98939.94;4482909;31;20192;-82
2023/10/09 14:02:18;;;;;;;5.05;2.08;;;;;;;15.89;75.57;98948.19;4482872;31;20104;-83
2023/10/09 14:04:50;;;;;;;3.05;1.85;;;;;;;15.79;78.56;98956.31;4481759;31;20122;-79
2023/10/09 14:07:20;;;;;;;7.57;2.30;;;;;;;15.69;80.87;98947.69;4482510;32;20096;-80
2023/10/09 14:10:07;;;;;;;3.45;1.70;;;;;;;15.59;84.42;98949.66;4484784;31;20127;-81
2023/10/09 14:12:39;;;;;;;8.35;2.35;;;;;;;15.40;86.96;98948.19;4485232;32;20085;-78
2023/10/09 14:15:11;;;;;;;9.45;2.60;;;;;;;15.23;92.10;98931.47;4484237;32;20115;-79
2023/10/09 14:17:42;;;;;;;9.15;2.60;;;;;;;15.14;97.32;98935.09;4469165;32;20081;-79
2023/10/09 14:20:30;;;;;;;10.82;2.50;;;;;;;15.00;99.20;98947.09;4469289;32;20120;-79
2023/10/09 14:23:08;;;;;;;7.28;2.40;;;;;;;14.81;100.00;98946.41;4484730;32;20108;-78
2023/10/09 14:25:39;;;;;;;6.50;2.33;;;;;;;14.57;100.00;98939.19;4484780;31;20088;-78
2023/10/09 14:28:10;;;;;;;7.20;2.92;;;;;;;14.48;100.00;98937.50;4482723;32;20298;-78
2023/10/09 14:30:44;;;;;;;10.68;2.95;;;;;;;14.40;100.00;98930.41;4483260;31;20506;-79
2023/10/09 14:33:22;;;;;;;8.50;2.97;;;;;;;14.20;100.00;98932.41;4477730;31;20092;-78
2023/10/09 14:35:52;;;;;;;11.18;3.20;;;;;;;14.07;100.00;98943.38;4469290;32;20766;-78
2023/10/09 14:38:26;;;;;;;7.43;3.08;;;;;;;14.06;100.00;98949.63;4470135;32;20097;-77
2023/10/09 14:41:00;;;;;;;7.57;3.70;;;;;;;13.94;100.00;98942.97;4484197;31;20096;-77
2023/10/09 14:43:28;;;;;;;7.93;3.30;;;;;;;13.82;100.00;98945.03;4484823;31;20559;-77